sensor_id;sensor_type;location;lat;lon;timestamp;P1;durP1;ratioP1;P2;durP2;ratioP2
40955;SDS011;26687;48.254;11.454;2023-07-31T00:00:16;2.22;;;1.05;;
40955;SDS011;26687;48.254;11.454;2023-07-31T00:03:17;2.40;;;1.40;;
40955;SDS011;26687;48.254;11.454;2023-07-31T00:06:17;3.43;;;1.17;;
40955;SDS011;26687;48.254;11.454;2023-07-31T00:09:17;1.92;;;1.52;;
40955;SDS011;26687;48.254;11.454;2023-07-31T00:12:17;3.33;;;1.50;;
40955;SDS011;26687;48.254;11.454;2023-07-31T00:15:17;2.43;;;1.30;;
40955;SDS011;26687;48.254;11.454;2023-07-31T00:18:18;1.48;;;1.38;;
40955;SDS011;26687;48.254;11.454;2023-07-31T00:21:18;1.50;;;1.02;;
40955;SDS011;26687;48.254;11.454;2023-07-31T00:24:18;3.27;;;1.50;;
40955;SDS011;26687;48.254;11.454;2023-07-31T00:27:18;2.20;;;1.42;;
40955;SDS011;26687;48.254;11.454;2023-07-31T00:30:18;4.03;;;1.30;;
40955;SDS011;26687;48.254;11.454;2023-07-31T00:33:18;2.13;;;1.40;;
40955;SDS011;26687;48.254;11.454;2023-07-31T00:36:19;3.13;;;1.30;;
40955;SDS011;26687;48.254;11.454;2023-07-31T00:39:19;2.43;;;1.60;;
40955;SDS011;26687;48.254;11.454;2023-07-31T00:42:19;2.35;;;1.30;;
40955;SDS011;26687;48.254;11.454;2023-07-31T00:45:19;2.73;;;1.30;;
40955;SDS011;26687;48.254;11.454;2023-07-31T00:51:23;3.75;;;1.60;;
40955;SDS011;26687;48.254;11.454;2023-07-31T00:54:23;2.40;;;1.50;;
40955;SDS011;26687;48.254;11.454;2023-07-31T00:57:23;3.22;;;1.60;;
40955;SDS011;26687;48.254;11.454;2023-07-31T01:00:23;1.90;;;1.40;;
40955;SDS011;26687;48.254;11.454;2023-07-31T01:03:23;2.38;;;1.60;;
40955;SDS011;26687;48.254;11.454;2023-07-31T01:09:42;1.73;;;1.30;;
40955;SDS011;26687;48.254;11.454;2023-07-31T01:12:45;2.30;;;1.40;;
40955;SDS011;26687;48.254;11.454;2023-07-31T01:15:45;4.80;;;1.67;;
40955;SDS011;26687;48.254;11.454;2023-07-31T01:18:45;2.83;;;1.60;;
40955;SDS011;26687;48.254;11.454;2023-07-31T01:24:52;1.70;;;1.27;;
40955;SDS011;26687;48.254;11.454;2023-07-31T01:27:59;1.42;;;1.17;;
40955;SDS011;26687;48.254;11.454;2023-07-31T01:31:00;1.90;;;1.52;;
40955;SDS011;26687;48.254;11.454;2023-07-31T01:34:01;4.32;;;1.70;;
40955;SDS011;26687;48.254;11.454;2023-07-31T01:37:01;3.28;;;1.42;;
40955;SDS011;26687;48.254;11.454;2023-07-31T01:40:02;1.58;;;1.27;;
40955;SDS011;26687;48.254;11.454;2023-07-31T01:43:03;2.83;;;1.38;;
40955;SDS011;26687;48.254;11.454;2023-07-31T01:46:03;1.60;;;1.30;;
40955;SDS011;26687;48.254;11.454;2023-07-31T01:49:03;1.58;;;1.30;;
40955;SDS011;26687;48.254;11.454;2023-07-31T01:52:05;2.05;;;1.20;;
40955;SDS011;26687;48.254;11.454;2023-07-31T01:55:06;1.20;;;1.10;;
40955;SDS011;26687;48.254;11.454;2023-07-31T01:58:06;2.22;;;1.52;;
40955;SDS011;26687;48.254;11.454;2023-07-31T02:01:06;1.88;;;1.60;;
40955;SDS011;26687;48.254;11.454;2023-07-31T02:04:06;2.65;;;1.73;;
40955;SDS011;26687;48.254;11.454;2023-07-31T02:07:06;2.40;;;1.40;;
40955;SDS011;26687;48.254;11.454;2023-07-31T02:10:07;1.92;;;1.55;;
40955;SDS011;26687;48.254;11.454;2023-07-31T02:13:07;2.60;;;1.60;;
40955;SDS011;26687;48.254;11.454;2023-07-31T02:16:07;1.38;;;1.20;;
40955;SDS011;26687;48.254;11.454;2023-07-31T02:19:07;1.90;;;1.65;;
40955;SDS011;26687;48.254;11.454;2023-07-31T02:22:08;4.65;;;1.80;;
40955;SDS011;26687;48.254;11.454;2023-07-31T02:25:08;1.98;;;1.27;;
40955;SDS011;26687;48.254;11.454;2023-07-31T02:28:08;2.00;;;1.50;;
40955;SDS011;26687;48.254;11.454;2023-07-31T02:31:08;1.60;;;1.30;;
40955;SDS011;26687;48.254;11.454;2023-07-31T02:34:08;2.30;;;1.40;;
40955;SDS011;26687;48.254;11.454;2023-07-31T02:37:09;2.35;;;1.50;;
40955;SDS011;26687;48.254;11.454;2023-07-31T02:40:09;1.52;;;1.35;;
40955;SDS011;26687;48.254;11.454;2023-07-31T02:43:09;1.60;;;1.50;;
40955;SDS011;26687;48.254;11.454;2023-07-31T02:46:09;2.05;;;1.45;;
40955;SDS011;26687;48.254;11.454;2023-07-31T02:49:10;2.23;;;1.60;;
40955;SDS011;26687;48.254;11.454;2023-07-31T02:52:10;2.15;;;1.40;;
40955;SDS011;26687;48.254;11.454;2023-07-31T02:55:10;3.47;;;1.60;;
40955;SDS011;26687;48.254;11.454;2023-07-31T02:58:10;2.07;;;1.60;;
40955;SDS011;26687;48.254;11.454;2023-07-31T03:01:10;3.20;;;1.70;;
40955;SDS011;26687;48.254;11.454;2023-07-31T03:04:11;1.67;;;1.40;;
40955;SDS011;26687;48.254;11.454;2023-07-31T03:07:11;2.47;;;1.50;;
40955;SDS011;26687;48.254;11.454;2023-07-31T03:10:11;1.95;;;1.55;;
40955;SDS011;26687;48.254;11.454;2023-07-31T03:13:11;1.53;;;1.30;;
40955;SDS011;26687;48.254;11.454;2023-07-31T03:16:11;1.53;;;1.30;;
40955;SDS011;26687;48.254;11.454;2023-07-31T03:19:12;3.33;;;1.58;;
40955;SDS011;26687;48.254;11.454;2023-07-31T03:22:12;2.27;;;1.40;;
40955;SDS011;26687;48.254;11.454;2023-07-31T03:25:12;1.88;;;1.45;;
40955;SDS011;26687;48.254;11.454;2023-07-31T03:28:12;1.83;;;1.40;;
40955;SDS011;26687;48.254;11.454;2023-07-31T03:31:12;4.20;;;1.77;;
40955;SDS011;26687;48.254;11.454;2023-07-31T03:34:13;3.00;;;1.63;;
40955;SDS011;26687;48.254;11.454;2023-07-31T03:37:13;1.70;;;1.60;;
40955;SDS011;26687;48.254;11.454;2023-07-31T03:40:13;1.88;;;1.70;;
40955;SDS011;26687;48.254;11.454;2023-07-31T03:43:13;1.30;;;1.20;;
40955;SDS011;26687;48.254;11.454;2023-07-31T03:46:13;2.07;;;1.50;;
40955;SDS011;26687;48.254;11.454;2023-07-31T03:49:14;2.78;;;1.70;;
40955;SDS011;26687;48.254;11.454;2023-07-31T03:52:14;2.10;;;1.53;;
40955;SDS011;26687;48.254;11.454;2023-07-31T03:55:14;2.67;;;1.52;;
40955;SDS011;26687;48.254;11.454;2023-07-31T03:58:14;3.00;;;1.67;;
40955;SDS011;26687;48.254;11.454;2023-07-31T04:01:14;4.28;;;1.40;;
40955;SDS011;26687;48.254;11.454;2023-07-31T04:04:15;3.20;;;1.80;;
40955;SDS011;26687;48.254;11.454;2023-07-31T04:07:15;1.85;;;1.55;;
40955;SDS011;26687;48.254;11.454;2023-07-31T04:10:15;2.10;;;1.55;;
40955;SDS011;26687;48.254;11.454;2023-07-31T04:13:15;1.90;;;1.47;;
40955;SDS011;26687;48.254;11.454;2023-07-31T04:16:15;2.53;;;1.83;;
40955;SDS011;26687;48.254;11.454;2023-07-31T04:19:16;7.23;;;1.63;;
40955;SDS011;26687;48.254;11.454;2023-07-31T04:22:16;2.00;;;1.52;;
40955;SDS011;26687;48.254;11.454;2023-07-31T04:25:16;2.17;;;1.50;;
40955;SDS011;26687;48.254;11.454;2023-07-31T04:28:17;3.47;;;1.80;;
40955;SDS011;26687;48.254;11.454;2023-07-31T04:31:17;2.70;;;1.65;;
40955;SDS011;26687;48.254;11.454;2023-07-31T04:34:17;2.03;;;1.38;;
40955;SDS011;26687;48.254;11.454;2023-07-31T04:37:17;3.33;;;1.70;;
40955;SDS011;26687;48.254;11.454;2023-07-31T04:40:17;3.75;;;1.55;;
40955;SDS011;26687;48.254;11.454;2023-07-31T04:43:17;2.60;;;1.80;;
40955;SDS011;26687;48.254;11.454;2023-07-31T04:46:18;2.33;;;1.87;;
40955;SDS011;26687;48.254;11.454;2023-07-31T04:49:18;3.83;;;1.40;;
40955;SDS011;26687;48.254;11.454;2023-07-31T04:52:19;3.22;;;1.77;;
40955;SDS011;26687;48.254;11.454;2023-07-31T04:55:19;2.92;;;1.58;;
40955;SDS011;26687;48.254;11.454;2023-07-31T04:58:19;2.88;;;1.50;;
40955;SDS011;26687;48.254;11.454;2023-07-31T05:01:19;2.70;;;1.60;;
40955;SDS011;26687;48.254;11.454;2023-07-31T05:04:19;3.15;;;1.55;;
40955;SDS011;26687;48.254;11.454;2023-07-31T05:07:20;3.83;;;2.00;;
40955;SDS011;26687;48.254;11.454;2023-07-31T05:10:20;2.87;;;1.60;;
40955;SDS011;26687;48.254;11.454;2023-07-31T05:13:20;2.03;;;1.40;;
40955;SDS011;26687;48.254;11.454;2023-07-31T05:16:20;3.40;;;1.70;;
40955;SDS011;26687;48.254;11.454;2023-07-31T05:19:21;3.40;;;1.50;;
40955;SDS011;26687;48.254;11.454;2023-07-31T05:22:21;5.45;;;1.50;;
40955;SDS011;26687;48.254;11.454;2023-07-31T05:25:21;2.60;;;1.33;;
40955;SDS011;26687;48.254;11.454;2023-07-31T05:28:21;2.73;;;1.60;;
40955;SDS011;26687;48.254;11.454;2023-07-31T05:31:21;2.70;;;1.77;;
40955;SDS011;26687;48.254;11.454;2023-07-31T05:34:22;4.68;;;1.80;;
40955;SDS011;26687;48.254;11.454;2023-07-31T05:37:23;2.15;;;1.75;;
40955;SDS011;26687;48.254;11.454;2023-07-31T05:40:23;4.38;;;2.40;;
40955;SDS011;26687;48.254;11.454;2023-07-31T05:43:23;3.40;;;2.80;;
40955;SDS011;26687;48.254;11.454;2023-07-31T05:46:23;3.58;;;2.20;;
40955;SDS011;26687;48.254;11.454;2023-07-31T05:49:23;3.47;;;2.00;;
40955;SDS011;26687;48.254;11.454;2023-07-31T05:52:24;2.67;;;2.15;;
40955;SDS011;26687;48.254;11.454;2023-07-31T05:55:24;2.47;;;2.28;;
40955;SDS011;26687;48.254;11.454;2023-07-31T05:58:26;2.10;;;1.67;;
40955;SDS011;26687;48.254;11.454;2023-07-31T06:01:27;2.53;;;1.50;;
40955;SDS011;26687;48.254;11.454;2023-07-31T06:04:27;1.93;;;1.50;;
40955;SDS011;26687;48.254;11.454;2023-07-31T06:07:28;2.10;;;1.60;;
40955;SDS011;26687;48.254;11.454;2023-07-31T06:10:28;2.40;;;1.40;;
40955;SDS011;26687;48.254;11.454;2023-07-31T06:13:28;3.43;;;1.40;;
40955;SDS011;26687;48.254;11.454;2023-07-31T06:16:28;2.83;;;1.63;;
40955;SDS011;26687;48.254;11.454;2023-07-31T06:19:28;2.90;;;1.73;;
40955;SDS011;26687;48.254;11.454;2023-07-31T06:22:28;2.75;;;1.67;;
40955;SDS011;26687;48.254;11.454;2023-07-31T06:25:29;1.83;;;1.70;;
40955;SDS011;26687;48.254;11.454;2023-07-31T06:28:29;1.63;;;1.52;;
40955;SDS011;26687;48.254;11.454;2023-07-31T06:31:29;2.75;;;1.40;;
40955;SDS011;26687;48.254;11.454;2023-07-31T06:34:30;1.73;;;1.53;;
40955;SDS011;26687;48.254;11.454;2023-07-31T06:37:30;2.40;;;1.47;;
40955;SDS011;26687;48.254;11.454;2023-07-31T06:40:30;2.40;;;1.60;;
40955;SDS011;26687;48.254;11.454;2023-07-31T06:43:30;3.47;;;1.40;;
40955;SDS011;26687;48.254;11.454;2023-07-31T06:46:31;3.30;;;1.58;;
40955;SDS011;26687;48.254;11.454;2023-07-31T06:49:31;3.27;;;1.83;;
40955;SDS011;26687;48.254;11.454;2023-07-31T06:52:31;2.85;;;1.50;;
40955;SDS011;26687;48.254;11.454;2023-07-31T06:55:31;3.00;;;1.52;;
40955;SDS011;26687;48.254;11.454;2023-07-31T06:58:31;1.80;;;1.30;;
40955;SDS011;26687;48.254;11.454;2023-07-31T07:01:32;3.23;;;1.50;;
40955;SDS011;26687;48.254;11.454;2023-07-31T07:04:32;2.28;;;1.42;;
40955;SDS011;26687;48.254;11.454;2023-07-31T07:07:32;1.98;;;1.38;;
40955;SDS011;26687;48.254;11.454;2023-07-31T07:10:33;6.07;;;1.77;;
40955;SDS011;26687;48.254;11.454;2023-07-31T07:13:33;2.80;;;1.60;;
40955;SDS011;26687;48.254;11.454;2023-07-31T07:16:33;3.57;;;1.23;;
40955;SDS011;26687;48.254;11.454;2023-07-31T07:19:33;2.60;;;1.40;;
40955;SDS011;26687;48.254;11.454;2023-07-31T07:22:34;2.70;;;1.30;;
40955;SDS011;26687;48.254;11.454;2023-07-31T07:25:37;3.13;;;1.45;;
40955;SDS011;26687;48.254;11.454;2023-07-31T07:28:37;3.50;;;1.38;;
40955;SDS011;26687;48.254;11.454;2023-07-31T07:31:37;2.80;;;1.10;;
40955;SDS011;26687;48.254;11.454;2023-07-31T07:34:37;1.80;;;1.50;;
40955;SDS011;26687;48.254;11.454;2023-07-31T07:37:37;3.23;;;1.30;;
40955;SDS011;26687;48.254;11.454;2023-07-31T07:40:38;2.53;;;1.33;;
40955;SDS011;26687;48.254;11.454;2023-07-31T07:43:38;3.10;;;1.20;;
40955;SDS011;26687;48.254;11.454;2023-07-31T07:46:38;2.42;;;1.50;;
40955;SDS011;26687;48.254;11.454;2023-07-31T07:49:39;2.95;;;1.30;;
40955;SDS011;26687;48.254;11.454;2023-07-31T07:52:39;1.53;;;1.30;;
40955;SDS011;26687;48.254;11.454;2023-07-31T07:55:39;2.33;;;1.08;;
40955;SDS011;26687;48.254;11.454;2023-07-31T07:58:39;2.30;;;1.23;;
40955;SDS011;26687;48.254;11.454;2023-07-31T08:01:39;2.42;;;1.00;;
40955;SDS011;26687;48.254;11.454;2023-07-31T08:04:39;2.75;;;1.08;;
40955;SDS011;26687;48.254;11.454;2023-07-31T08:07:40;3.15;;;1.25;;
40955;SDS011;26687;48.254;11.454;2023-07-31T08:10:40;2.03;;;1.00;;
40955;SDS011;26687;48.254;11.454;2023-07-31T08:13:40;3.40;;;1.17;;
40955;SDS011;26687;48.254;11.454;2023-07-31T08:16:40;2.58;;;1.15;;
40955;SDS011;26687;48.254;11.454;2023-07-31T08:19:40;1.60;;;0.90;;
40955;SDS011;26687;48.254;11.454;2023-07-31T08:22:41;4.43;;;1.30;;
40955;SDS011;26687;48.254;11.454;2023-07-31T08:25:41;2.73;;;1.27;;
40955;SDS011;26687;48.254;11.454;2023-07-31T08:28:41;2.38;;;0.90;;
40955;SDS011;26687;48.254;11.454;2023-07-31T08:31:42;1.80;;;1.00;;
40955;SDS011;26687;48.254;11.454;2023-07-31T08:34:42;3.15;;;1.30;;
40955;SDS011;26687;48.254;11.454;2023-07-31T08:37:42;2.40;;;1.10;;
40955;SDS011;26687;48.254;11.454;2023-07-31T08:40:42;2.60;;;1.17;;
40955;SDS011;26687;48.254;11.454;2023-07-31T08:43:43;2.13;;;1.10;;
40955;SDS011;26687;48.254;11.454;2023-07-31T08:46:44;2.00;;;1.00;;
40955;SDS011;26687;48.254;11.454;2023-07-31T08:49:45;3.25;;;1.30;;
40955;SDS011;26687;48.254;11.454;2023-07-31T08:52:46;3.00;;;1.40;;
40955;SDS011;26687;48.254;11.454;2023-07-31T08:55:47;2.97;;;1.35;;
40955;SDS011;26687;48.254;11.454;2023-07-31T08:58:48;2.40;;;1.25;;
40955;SDS011;26687;48.254;11.454;2023-07-31T09:01:49;2.80;;;1.75;;
40955;SDS011;26687;48.254;11.454;2023-07-31T09:04:50;1.75;;;1.10;;
40955;SDS011;26687;48.254;11.454;2023-07-31T09:07:50;2.63;;;1.20;;
40955;SDS011;26687;48.254;11.454;2023-07-31T09:10:51;2.47;;;1.20;;
40955;SDS011;26687;48.254;11.454;2023-07-31T09:13:52;3.63;;;1.20;;
40955;SDS011;26687;48.254;11.454;2023-07-31T09:16:55;2.78;;;1.20;;
40955;SDS011;26687;48.254;11.454;2023-07-31T09:19:56;1.98;;;1.35;;
40955;SDS011;26687;48.254;11.454;2023-07-31T09:22:56;3.75;;;1.00;;
40955;SDS011;26687;48.254;11.454;2023-07-31T09:25:57;2.60;;;1.15;;
40955;SDS011;26687;48.254;11.454;2023-07-31T09:28:57;3.23;;;1.20;;
40955;SDS011;26687;48.254;11.454;2023-07-31T09:31:58;2.47;;;0.93;;
40955;SDS011;26687;48.254;11.454;2023-07-31T09:34:58;2.10;;;1.23;;
40955;SDS011;26687;48.254;11.454;2023-07-31T09:37:59;4.35;;;1.50;;
40955;SDS011;26687;48.254;11.454;2023-07-31T09:41:00;1.60;;;1.00;;
40955;SDS011;26687;48.254;11.454;2023-07-31T09:44:00;1.45;;;1.00;;
40955;SDS011;26687;48.254;11.454;2023-07-31T09:47:00;3.00;;;1.30;;
40955;SDS011;26687;48.254;11.454;2023-07-31T09:50:00;3.23;;;1.20;;
40955;SDS011;26687;48.254;11.454;2023-07-31T09:53:00;1.97;;;1.00;;
40955;SDS011;26687;48.254;11.454;2023-07-31T09:56:01;4.87;;;1.43;;
40955;SDS011;26687;48.254;11.454;2023-07-31T09:59:02;2.35;;;1.17;;
40955;SDS011;26687;48.254;11.454;2023-07-31T10:02:04;2.47;;;1.23;;
40955;SDS011;26687;48.254;11.454;2023-07-31T10:05:05;2.67;;;1.20;;
40955;SDS011;26687;48.254;11.454;2023-07-31T10:08:06;2.22;;;1.10;;
40955;SDS011;26687;48.254;11.454;2023-07-31T10:11:07;1.60;;;1.10;;
40955;SDS011;26687;48.254;11.454;2023-07-31T10:14:09;1.80;;;1.10;;
40955;SDS011;26687;48.254;11.454;2023-07-31T10:17:10;3.47;;;1.20;;
40955;SDS011;26687;48.254;11.454;2023-07-31T10:20:10;3.60;;;1.20;;
40955;SDS011;26687;48.254;11.454;2023-07-31T10:23:11;1.92;;;1.45;;
40955;SDS011;26687;48.254;11.454;2023-07-31T10:26:11;1.75;;;1.13;;
40955;SDS011;26687;48.254;11.454;2023-07-31T10:29:13;2.67;;;1.30;;
40955;SDS011;26687;48.254;11.454;2023-07-31T10:32:14;3.30;;;1.40;;
40955;SDS011;26687;48.254;11.454;2023-07-31T10:35:14;2.08;;;1.15;;
40955;SDS011;26687;48.254;11.454;2023-07-31T10:38:15;3.92;;;1.63;;
40955;SDS011;26687;48.254;11.454;2023-07-31T10:41:16;2.85;;;1.63;;
40955;SDS011;26687;48.254;11.454;2023-07-31T10:44:16;1.65;;;1.17;;
40955;SDS011;26687;48.254;11.454;2023-07-31T10:47:17;2.95;;;1.30;;
40955;SDS011;26687;48.254;11.454;2023-07-31T10:50:21;3.65;;;1.20;;
40955;SDS011;26687;48.254;11.454;2023-07-31T10:53:25;1.92;;;1.10;;
40955;SDS011;26687;48.254;11.454;2023-07-31T10:56:26;3.90;;;1.27;;
40955;SDS011;26687;48.254;11.454;2023-07-31T10:59:26;1.95;;;1.40;;
40955;SDS011;26687;48.254;11.454;2023-07-31T11:02:28;2.95;;;1.45;;
40955;SDS011;26687;48.254;11.454;2023-07-31T11:08:44;2.92;;;1.50;;
40955;SDS011;26687;48.254;11.454;2023-07-31T11:11:44;3.22;;;1.33;;
40955;SDS011;26687;48.254;11.454;2023-07-31T11:14:53;1.77;;;1.20;;
40955;SDS011;26687;48.254;11.454;2023-07-31T11:17:53;2.15;;;1.30;;
40955;SDS011;26687;48.254;11.454;2023-07-31T11:20:53;1.95;;;1.02;;
40955;SDS011;26687;48.254;11.454;2023-07-31T11:23:56;4.50;;;1.42;;
40955;SDS011;26687;48.254;11.454;2023-07-31T11:26:57;3.13;;;1.60;;
40955;SDS011;26687;48.254;11.454;2023-07-31T11:30:01;1.92;;;1.17;;
40955;SDS011;26687;48.254;11.454;2023-07-31T11:33:02;2.65;;;1.70;;
40955;SDS011;26687;48.254;11.454;2023-07-31T11:36:05;1.75;;;1.27;;
40955;SDS011;26687;48.254;11.454;2023-07-31T11:39:06;1.90;;;1.30;;
40955;SDS011;26687;48.254;11.454;2023-07-31T11:42:06;2.22;;;1.23;;
40955;SDS011;26687;48.254;11.454;2023-07-31T11:45:07;2.63;;;1.40;;
40955;SDS011;26687;48.254;11.454;2023-07-31T11:48:07;1.10;;;1.00;;
40955;SDS011;26687;48.254;11.454;2023-07-31T11:51:09;4.37;;;1.50;;
40955;SDS011;26687;48.254;11.454;2023-07-31T11:54:10;2.17;;;1.50;;
40955;SDS011;26687;48.254;11.454;2023-07-31T11:57:12;2.05;;;1.48;;
40955;SDS011;26687;48.254;11.454;2023-07-31T12:00:13;2.10;;;1.33;;
40955;SDS011;26687;48.254;11.454;2023-07-31T12:03:14;3.92;;;1.75;;
40955;SDS011;26687;48.254;11.454;2023-07-31T12:06:14;2.45;;;1.60;;
40955;SDS011;26687;48.254;11.454;2023-07-31T12:09:15;3.23;;;1.47;;
40955;SDS011;26687;48.254;11.454;2023-07-31T12:12:19;2.67;;;1.30;;
40955;SDS011;26687;48.254;11.454;2023-07-31T12:15:19;2.88;;;1.50;;
40955;SDS011;26687;48.254;11.454;2023-07-31T12:18:20;1.67;;;1.35;;
40955;SDS011;26687;48.254;11.454;2023-07-31T12:21:20;3.92;;;1.55;;
40955;SDS011;26687;48.254;11.454;2023-07-31T12:24:21;2.67;;;1.20;;
40955;SDS011;26687;48.254;11.454;2023-07-31T12:27:21;3.03;;;1.37;;
40955;SDS011;26687;48.254;11.454;2023-07-31T12:30:34;3.00;;;1.08;;
40955;SDS011;26687;48.254;11.454;2023-07-31T12:33:35;2.95;;;1.48;;
40955;SDS011;26687;48.254;11.454;2023-07-31T12:36:35;2.15;;;1.20;;
40955;SDS011;26687;48.254;11.454;2023-07-31T12:39:36;2.40;;;1.45;;
40955;SDS011;26687;48.254;11.454;2023-07-31T12:42:36;3.28;;;1.33;;
40955;SDS011;26687;48.254;11.454;2023-07-31T12:45:36;1.50;;;1.00;;
40955;SDS011;26687;48.254;11.454;2023-07-31T12:48:37;3.33;;;1.50;;
40955;SDS011;26687;48.254;11.454;2023-07-31T12:51:37;2.20;;;1.30;;
40955;SDS011;26687;48.254;11.454;2023-07-31T12:54:38;1.43;;;1.30;;
40955;SDS011;26687;48.254;11.454;2023-07-31T12:57:39;2.20;;;1.20;;
40955;SDS011;26687;48.254;11.454;2023-07-31T13:00:39;1.65;;;1.23;;
40955;SDS011;26687;48.254;11.454;2023-07-31T13:03:39;2.85;;;1.17;;
40955;SDS011;26687;48.254;11.454;2023-07-31T13:06:40;3.08;;;1.33;;
40955;SDS011;26687;48.254;11.454;2023-07-31T13:09:40;3.10;;;1.25;;
40955;SDS011;26687;48.254;11.454;2023-07-31T13:12:40;2.40;;;1.23;;
40955;SDS011;26687;48.254;11.454;2023-07-31T13:15:40;2.90;;;1.37;;
40955;SDS011;26687;48.254;11.454;2023-07-31T13:18:41;2.63;;;1.70;;
40955;SDS011;26687;48.254;11.454;2023-07-31T13:21:41;3.83;;;1.70;;
40955;SDS011;26687;48.254;11.454;2023-07-31T13:24:41;2.83;;;1.20;;
40955;SDS011;26687;48.254;11.454;2023-07-31T13:27:41;1.40;;;1.23;;
40955;SDS011;26687;48.254;11.454;2023-07-31T13:30:41;1.98;;;1.30;;
40955;SDS011;26687;48.254;11.454;2023-07-31T13:33:42;2.10;;;1.20;;
40955;SDS011;26687;48.254;11.454;2023-07-31T13:36:42;1.60;;;1.20;;
40955;SDS011;26687;48.254;11.454;2023-07-31T13:39:42;1.70;;;1.40;;
40955;SDS011;26687;48.254;11.454;2023-07-31T13:42:42;2.22;;;1.30;;
40955;SDS011;26687;48.254;11.454;2023-07-31T13:45:42;2.73;;;1.43;;
40955;SDS011;26687;48.254;11.454;2023-07-31T13:48:43;4.38;;;1.20;;
40955;SDS011;26687;48.254;11.454;2023-07-31T13:51:43;3.47;;;1.50;;
40955;SDS011;26687;48.254;11.454;2023-07-31T13:54:43;3.07;;;1.40;;
40955;SDS011;26687;48.254;11.454;2023-07-31T13:57:43;1.80;;;1.23;;
40955;SDS011;26687;48.254;11.454;2023-07-31T14:00:44;3.05;;;1.52;;
40955;SDS011;26687;48.254;11.454;2023-07-31T14:03:44;2.00;;;1.20;;
40955;SDS011;26687;48.254;11.454;2023-07-31T14:06:44;2.57;;;1.30;;
40955;SDS011;26687;48.254;11.454;2023-07-31T14:09:44;2.37;;;1.20;;
40955;SDS011;26687;48.254;11.454;2023-07-31T14:12:45;2.33;;;1.38;;
40955;SDS011;26687;48.254;11.454;2023-07-31T14:15:45;1.97;;;1.37;;
40955;SDS011;26687;48.254;11.454;2023-07-31T14:18:45;2.60;;;1.20;;
40955;SDS011;26687;48.254;11.454;2023-07-31T14:21:46;4.80;;;1.50;;
40955;SDS011;26687;48.254;11.454;2023-07-31T14:24:46;1.63;;;1.52;;
40955;SDS011;26687;48.254;11.454;2023-07-31T14:27:46;5.60;;;1.40;;
40955;SDS011;26687;48.254;11.454;2023-07-31T14:30:46;2.75;;;1.70;;
40955;SDS011;26687;48.254;11.454;2023-07-31T14:33:47;3.15;;;1.77;;
40955;SDS011;26687;48.254;11.454;2023-07-31T14:36:47;2.28;;;1.52;;
40955;SDS011;26687;48.254;11.454;2023-07-31T14:39:47;2.95;;;1.73;;
40955;SDS011;26687;48.254;11.454;2023-07-31T14:42:47;5.00;;;1.20;;
40955;SDS011;26687;48.254;11.454;2023-07-31T14:45:48;2.50;;;1.50;;
40955;SDS011;26687;48.254;11.454;2023-07-31T14:48:49;2.53;;;1.33;;
40955;SDS011;26687;48.254;11.454;2023-07-31T14:51:49;3.67;;;1.80;;
40955;SDS011;26687;48.254;11.454;2023-07-31T14:54:49;2.25;;;1.40;;
40955;SDS011;26687;48.254;11.454;2023-07-31T14:57:50;2.55;;;1.40;;
40955;SDS011;26687;48.254;11.454;2023-07-31T15:00:50;4.20;;;1.70;;
40955;SDS011;26687;48.254;11.454;2023-07-31T15:03:50;2.22;;;1.40;;
40955;SDS011;26687;48.254;11.454;2023-07-31T15:06:51;2.03;;;1.30;;
40955;SDS011;26687;48.254;11.454;2023-07-31T15:09:51;2.70;;;1.58;;
40955;SDS011;26687;48.254;11.454;2023-07-31T15:12:51;2.75;;;1.45;;
40955;SDS011;26687;48.254;11.454;2023-07-31T15:15:53;3.80;;;1.70;;
40955;SDS011;26687;48.254;11.454;2023-07-31T15:18:53;3.00;;;1.73;;
40955;SDS011;26687;48.254;11.454;2023-07-31T15:21:53;2.97;;;1.90;;
40955;SDS011;26687;48.254;11.454;2023-07-31T15:24:53;4.07;;;1.50;;
40955;SDS011;26687;48.254;11.454;2023-07-31T15:27:54;2.70;;;1.53;;
40955;SDS011;26687;48.254;11.454;2023-07-31T15:30:54;3.35;;;1.55;;
40955;SDS011;26687;48.254;11.454;2023-07-31T15:33:54;3.07;;;1.73;;
40955;SDS011;26687;48.254;11.454;2023-07-31T15:36:54;3.15;;;1.80;;
40955;SDS011;26687;48.254;11.454;2023-07-31T15:39:54;2.58;;;1.65;;
40955;SDS011;26687;48.254;11.454;2023-07-31T15:42:55;2.90;;;2.03;;
40955;SDS011;26687;48.254;11.454;2023-07-31T15:45:55;4.27;;;2.03;;
40955;SDS011;26687;48.254;11.454;2023-07-31T15:48:55;2.08;;;1.63;;
40955;SDS011;26687;48.254;11.454;2023-07-31T15:51:55;2.93;;;2.00;;
40955;SDS011;26687;48.254;11.454;2023-07-31T15:54:56;4.47;;;1.90;;
40955;SDS011;26687;48.254;11.454;2023-07-31T15:57:56;3.53;;;1.83;;
40955;SDS011;26687;48.254;11.454;2023-07-31T16:00:56;3.80;;;1.90;;
40955;SDS011;26687;48.254;11.454;2023-07-31T16:03:56;4.80;;;2.13;;
40955;SDS011;26687;48.254;11.454;2023-07-31T16:06:56;3.33;;;2.07;;
40955;SDS011;26687;48.254;11.454;2023-07-31T16:09:56;3.08;;;2.10;;
40955;SDS011;26687;48.254;11.454;2023-07-31T16:12:57;4.55;;;1.95;;
40955;SDS011;26687;48.254;11.454;2023-07-31T16:15:57;10.70;;;2.63;;
40955;SDS011;26687;48.254;11.454;2023-07-31T16:18:57;2.35;;;1.90;;
40955;SDS011;26687;48.254;11.454;2023-07-31T16:21:57;2.03;;;1.80;;
40955;SDS011;26687;48.254;11.454;2023-07-31T16:24:57;4.60;;;2.10;;
40955;SDS011;26687;48.254;11.454;2023-07-31T16:27:57;2.90;;;2.17;;
40955;SDS011;26687;48.254;11.454;2023-07-31T16:30:58;2.90;;;2.17;;
40955;SDS011;26687;48.254;11.454;2023-07-31T16:33:58;3.88;;;2.22;;
40955;SDS011;26687;48.254;11.454;2023-07-31T16:36:58;3.05;;;2.15;;
40955;SDS011;26687;48.254;11.454;2023-07-31T16:39:58;3.28;;;2.10;;
40955;SDS011;26687;48.254;11.454;2023-07-31T16:42:58;3.30;;;2.30;;
40955;SDS011;26687;48.254;11.454;2023-07-31T16:45:59;2.88;;;1.90;;
40955;SDS011;26687;48.254;11.454;2023-07-31T16:48:59;2.75;;;2.05;;
40955;SDS011;26687;48.254;11.454;2023-07-31T16:51:59;3.43;;;2.37;;
40955;SDS011;26687;48.254;11.454;2023-07-31T16:55:00;2.63;;;1.92;;
40955;SDS011;26687;48.254;11.454;2023-07-31T16:58:00;3.67;;;2.35;;
40955;SDS011;26687;48.254;11.454;2023-07-31T17:01:00;4.17;;;2.20;;
40955;SDS011;26687;48.254;11.454;2023-07-31T17:04:02;3.92;;;2.08;;
40955;SDS011;26687;48.254;11.454;2023-07-31T17:07:03;4.27;;;2.30;;
40955;SDS011;26687;48.254;11.454;2023-07-31T17:10:03;4.03;;;1.67;;
40955;SDS011;26687;48.254;11.454;2023-07-31T17:13:03;4.07;;;1.90;;
40955;SDS011;26687;48.254;11.454;2023-07-31T17:16:03;2.70;;;2.00;;
40955;SDS011;26687;48.254;11.454;2023-07-31T17:19:04;4.35;;;1.85;;
40955;SDS011;26687;48.254;11.454;2023-07-31T17:22:04;3.13;;;1.80;;
40955;SDS011;26687;48.254;11.454;2023-07-31T17:25:04;4.20;;;2.22;;
40955;SDS011;26687;48.254;11.454;2023-07-31T17:28:05;4.20;;;1.92;;
40955;SDS011;26687;48.254;11.454;2023-07-31T17:31:05;3.30;;;2.10;;
40955;SDS011;26687;48.254;11.454;2023-07-31T17:34:05;2.85;;;2.00;;
40955;SDS011;26687;48.254;11.454;2023-07-31T17:37:06;2.83;;;2.17;;
40955;SDS011;26687;48.254;11.454;2023-07-31T17:40:06;2.67;;;1.88;;
40955;SDS011;26687;48.254;11.454;2023-07-31T17:43:06;2.85;;;1.77;;
40955;SDS011;26687;48.254;11.454;2023-07-31T17:46:06;3.75;;;2.00;;
40955;SDS011;26687;48.254;11.454;2023-07-31T17:49:07;2.80;;;2.08;;
40955;SDS011;26687;48.254;11.454;2023-07-31T17:52:10;5.43;;;1.77;;
40955;SDS011;26687;48.254;11.454;2023-07-31T17:55:11;3.10;;;1.98;;
40955;SDS011;26687;48.254;11.454;2023-07-31T17:58:11;3.63;;;1.97;;
40955;SDS011;26687;48.254;11.454;2023-07-31T18:01:11;2.28;;;2.08;;